Terminal Aerodrome Forecast
Issued by NWS Cleveland, OH

Home | Current Version | Previous Version | Graphics & Text | Print | Product List | Glossary On
Versions: 1 2 3 4 5 6 7 8 9 10 11 12 13 14 15 16 17 18 19 20 21 22
000
FTUS41 KCLE 232100 AAA
TAFCLE
TAF AMD
KCLE 232113Z 2321/2424 16009KT P6SM SCT025 BKN090
     FM240300 15005KT P6SM -SHRA SCT007 OVC012
     FM240500 12006KT 3SM -SHRA BR OVC005
     FM241500 14010KT 4SM BR VCSH OVC003=

USA.gov is the U.S. government's official web portal to all federal, state and local government web resources and services.